createdAt,value
2017-07-05T00:01:02.151Z,200
2017-07-05T00:02:04.964Z,195
2017-07-05T00:03:08.392Z,190
2017-07-05T00:04:14.117Z,190
2017-07-05T00:05:16.769Z,190
2017-07-05T00:06:21.121Z,190
2017-07-05T00:07:23.903Z,190
2017-07-05T00:08:26.652Z,190
2017-07-05T00:09:29.306Z,185
2017-07-05T00:10:33.018Z,185
2017-07-05T00:11:35.712Z,185
2017-07-05T00:12:38.463Z,185
2017-07-05T00:13:41.304Z,190
2017-07-05T00:14:43.955Z,190
2017-07-05T00:15:46.883Z,200
2017-07-05T00:16:49.589Z,195
2017-07-05T00:17:52.292Z,195
2017-07-05T00:18:54.885Z,195
2017-07-05T00:19:58.375Z,190
2017-07-05T00:21:01.072Z,190
2017-07-05T00:22:03.676Z,180
2017-07-05T00:23:06.689Z,180
2017-07-05T00:24:09.492Z,175
2017-07-05T00:25:12.485Z,175
2017-07-05T00:26:15.301Z,170
2017-07-05T00:27:17.897Z,165
2017-07-05T00:28:20.632Z,160
2017-07-05T00:29:23.596Z,155
2017-07-05T00:30:26.208Z,150
2017-07-05T00:31:29.098Z,150
2017-07-05T00:32:31.895Z,150
2017-07-05T00:33:34.626Z,145
2017-07-05T00:34:37.175Z,145
2017-07-05T00:35:39.762Z,145
2017-07-05T00:36:42.555Z,150
2017-07-05T00:37:45.449Z,150
2017-07-05T00:38:48.224Z,150
2017-07-05T00:39:51.012Z,150
2017-07-05T00:40:53.828Z,150
2017-07-05T00:41:56.610Z,150
2017-07-05T00:42:59.985Z,150
2017-07-05T00:44:02.848Z,145
2017-07-05T00:45:05.783Z,140
2017-07-05T00:46:08.461Z,135
2017-07-05T00:47:11.163Z,135
2017-07-05T00:48:13.862Z,130
2017-07-05T00:49:16.686Z,130
2017-07-05T00:50:19.376Z,130
2017-07-05T00:51:22.056Z,130
2017-07-05T00:52:24.724Z,130
2017-07-05T00:53:27.461Z,130
2017-07-05T00:54:31.926Z,130
2017-07-05T00:55:34.653Z,130
2017-07-05T00:56:37.972Z,130
2017-07-05T00:57:40.855Z,130
2017-07-05T00:58:43.664Z,130
2017-07-05T00:59:46.359Z,125
2017-07-05T01:00:49.157Z,115
2017-07-05T01:01:52.096Z,110
2017-07-05T01:02:54.825Z,110
2017-07-05T01:03:57.570Z,115
2017-07-05T01:05:00.171Z,115
2017-07-05T01:06:04.480Z,120
2017-07-05T01:07:07.077Z,120
2017-07-05T01:08:11.509Z,120
2017-07-05T01:09:14.339Z,120
2017-07-05T01:10:17.265Z,120
2017-07-05T01:11:20.032Z,120
2017-07-05T01:12:22.811Z,120
2017-07-05T01:13:28.534Z,115
2017-07-05T01:14:31.331Z,115
2017-07-05T01:15:34.110Z,115
2017-07-05T01:16:36.804Z,115
2017-07-05T01:17:39.455Z,115
2017-07-05T01:18:42.049Z,115
2017-07-05T01:19:44.656Z,115
2017-07-05T01:20:47.961Z,110
2017-07-05T01:21:52.479Z,110
2017-07-05T01:22:55.236Z,110
2017-07-05T01:23:57.966Z,110
2017-07-05T01:25:00.534Z,110
2017-07-05T01:26:03.122Z,110
2017-07-05T01:27:06.363Z,110
2017-07-05T01:28:09.132Z,105
2017-07-05T01:29:11.787Z,105
2017-07-05T01:30:15.009Z,105
2017-07-05T01:31:17.916Z,100
2017-07-05T01:32:20.847Z,100
2017-07-05T01:33:23.620Z,100
2017-07-05T01:34:26.314Z,95
2017-07-05T01:35:29.108Z,95
2017-07-05T01:36:31.866Z,90
2017-07-05T01:37:34.690Z,90
2017-07-05T01:38:37.517Z,90
2017-07-05T01:39:42.135Z,90
2017-07-05T01:40:44.885Z,85
2017-07-05T01:41:47.718Z,85
2017-07-05T01:42:50.703Z,85
2017-07-05T01:43:53.460Z,85
2017-07-05T01:44:56.128Z,85
2017-07-05T01:45:58.952Z,85
2017-07-05T01:47:01.749Z,80
2017-07-05T01:48:04.464Z,80
2017-07-05T01:49:07.250Z,80
2017-07-05T01:50:10.089Z,85
2017-07-05T01:51:13.034Z,85
2017-07-05T01:52:15.885Z,80
2017-07-05T01:53:18.904Z,80
2017-07-05T01:54:21.863Z,80
2017-07-05T01:55:24.488Z,80
2017-07-05T01:56:29.478Z,75
2017-07-05T01:57:33.033Z,75
2017-07-05T01:58:35.815Z,75
2017-07-05T01:59:38.954Z,75
2017-07-05T02:00:41.923Z,70
2017-07-05T02:01:44.681Z,70
2017-07-05T02:02:47.621Z,70
2017-07-05T02:03:50.414Z,70
2017-07-05T02:04:55.080Z,75
2017-07-05T02:05:57.937Z,75
2017-07-05T02:07:00.724Z,75
2017-07-05T02:08:03.378Z,75
2017-07-05T02:09:06.209Z,75
2017-07-05T02:10:09.051Z,70
2017-07-05T02:11:11.840Z,70
2017-07-05T02:12:14.868Z,70
2017-07-05T02:13:17.502Z,65
2017-07-05T02:14:21.307Z,65
2017-07-05T02:15:24.064Z,65
2017-07-05T02:16:26.868Z,65
2017-07-05T02:17:29.844Z,65
2017-07-05T02:18:32.554Z,65
2017-07-05T02:19:35.374Z,65
2017-07-05T02:20:38.163Z,65
2017-07-05T02:21:41.061Z,60
2017-07-05T02:22:43.734Z,60
2017-07-05T02:23:46.802Z,60
2017-07-05T02:24:49.557Z,60
2017-07-05T02:25:52.385Z,60
2017-07-05T02:26:54.937Z,60
2017-07-05T02:27:58.423Z,60
2017-07-05T02:29:01.150Z,60
2017-07-05T02:30:05.588Z,55
2017-07-05T02:31:08.436Z,55
2017-07-05T02:32:11.367Z,55
2017-07-05T02:33:14.050Z,55
2017-07-05T02:34:17.621Z,55
2017-07-05T02:35:20.491Z,50
2017-07-05T02:36:23.336Z,50
2017-07-05T02:37:26.421Z,50
2017-07-05T02:38:29.175Z,45
2017-07-05T02:39:32.134Z,45
2017-07-05T02:40:34.854Z,45
2017-07-05T02:41:37.664Z,45
2017-07-05T02:42:40.431Z,45
2017-07-05T02:43:43.383Z,45
2017-07-05T02:44:46.081Z,45
2017-07-05T02:45:48.741Z,45
2017-07-05T02:46:51.512Z,50
2017-07-05T02:47:54.245Z,50
2017-07-05T02:48:57.122Z,50
2017-07-05T02:49:59.920Z,50
2017-07-05T02:51:02.710Z,45
2017-07-05T02:52:05.537Z,45
2017-07-05T02:53:08.495Z,45
2017-07-05T02:54:11.429Z,50
2017-07-05T02:55:14.334Z,50
2017-07-05T02:56:17.329Z,50
2017-07-05T02:57:20.219Z,50
2017-07-05T02:58:23.190Z,50
2017-07-05T02:59:25.943Z,50
2017-07-05T03:00:29.711Z,50
2017-07-05T03:01:31.679Z,50
2017-07-05T03:02:37.066Z,50
2017-07-05T03:03:39.980Z,50
2017-07-05T03:04:42.720Z,50
2017-07-05T03:05:45.682Z,50
2017-07-05T03:06:48.645Z,50
2017-07-05T03:07:51.351Z,50
2017-07-05T03:08:53.950Z,50
2017-07-05T03:09:59.765Z,50
2017-07-05T03:11:02.540Z,50
2017-07-05T03:12:05.226Z,50
2017-07-05T03:13:10.729Z,45
2017-07-05T03:14:13.503Z,45
2017-07-05T03:15:16.402Z,45
2017-07-05T03:16:19.225Z,45
2017-07-05T03:17:22.104Z,45
2017-07-05T03:18:25.082Z,45
2017-07-05T03:19:27.950Z,45
2017-07-05T03:20:30.637Z,45
2017-07-05T03:21:33.533Z,45
2017-07-05T03:22:36.353Z,45
2017-07-05T03:23:39.330Z,45
2017-07-05T03:24:42.069Z,45
2017-07-05T03:25:44.814Z,45
2017-07-05T03:26:47.667Z,45
2017-07-05T03:27:50.365Z,45
2017-07-05T03:28:53.022Z,45
2017-07-05T03:29:55.903Z,45
2017-07-05T03:30:58.755Z,45
2017-07-05T03:32:01.384Z,45
2017-07-05T03:33:07.198Z,45
2017-07-05T03:34:10.076Z,45
2017-07-05T03:35:12.891Z,45
2017-07-05T03:36:15.759Z,45
2017-07-05T03:37:18.674Z,45
2017-07-05T03:38:21.305Z,45
2017-07-05T03:39:23.932Z,45
2017-07-05T03:40:26.613Z,45
2017-07-05T03:41:29.500Z,45
2017-07-05T03:42:32.514Z,45
2017-07-05T03:43:35.461Z,45
2017-07-05T03:44:38.186Z,45
2017-07-05T03:45:41.969Z,45
2017-07-05T03:46:46.557Z,45
2017-07-05T03:47:49.161Z,45
2017-07-05T03:48:52.592Z,45
2017-07-05T03:49:55.455Z,45
2017-07-05T03:50:58.308Z,45
2017-07-05T03:52:01.229Z,45
2017-07-05T03:53:04.212Z,45
2017-07-05T03:54:08.175Z,45
2017-07-05T03:55:12.741Z,45
2017-07-05T03:56:15.621Z,45
2017-07-05T03:57:18.340Z,45
2017-07-05T03:58:20.962Z,45
2017-07-05T03:59:23.787Z,45
2017-07-05T04:00:26.452Z,40
2017-07-05T04:01:29.309Z,40
2017-07-05T04:02:32.187Z,40
2017-07-05T04:03:34.811Z,35
2017-07-05T04:04:39.869Z,35
2017-07-05T04:05:42.731Z,35
2017-07-05T04:06:45.575Z,30
2017-07-05T04:07:48.449Z,30
2017-07-05T04:08:51.186Z,30
2017-07-05T04:09:54.107Z,25
2017-07-05T04:10:57.143Z,25
2017-07-05T04:12:00.033Z,25
2017-07-05T04:13:02.887Z,25
2017-07-05T04:14:05.904Z,25
2017-07-05T04:15:08.791Z,25
2017-07-05T04:16:11.654Z,25
2017-07-05T04:17:14.462Z,25
2017-07-05T04:18:17.242Z,25
2017-07-05T04:19:20.194Z,25
2017-07-05T04:20:23.264Z,25
2017-07-05T04:21:25.939Z,25
2017-07-05T04:22:28.663Z,25
2017-07-05T04:26:41.372Z,30
2017-07-05T04:27:43.938Z,30
2017-07-05T04:29:09.689Z,30
